Currently 78°F in Simi Valley, California, USA
78°F
78°F / 65°F
23 mph NE
0.00"
Tuesday, December 12, 2017 1:50 PM PST

Simi Valley, California Climate Summary
Typical February Day

Normal High:    69.6°F (20.9°C)
Normal Low:    47.9°F (8.8°C)
Average:    57.9°F (14.4°C)

Hour    Temperature    Wind Speed    Humidity
12:00 AM    53°F (12°C)    3 mph    64%
1:00 AM    52°F (11°C)    3 mph    65%
2:00 AM    52°F (11°C)    3 mph    65%
3:00 AM    51°F (11°C)    4 mph    65%
4:00 AM    51°F (11°C)    4 mph    65%
5:00 AM    51°F (11°C)    4 mph    65%
6:00 AM    51°F (10°C)    4 mph    66%
7:00 AM    51°F (10°C)    4 mph    66%
8:00 AM    53°F (12°C)    4 mph    64%
9:00 AM    58°F (14°C)    4 mph    60%
10:00 AM    62°F (17°C)    4 mph    53%
11:00 AM    65°F (18°C)    5 mph    47%
12:00 PM    67°F (19°C)    5 mph    44%
1:00 PM    68°F (20°C)    5 mph    42%
2:00 PM    68°F (20°C)    5 mph    43%
3:00 PM    67°F (20°C)    5 mph    45%
4:00 PM    66°F (19°C)    5 mph    48%
5:00 PM    64°F (18°C)    4 mph    51%
6:00 PM    61°F (16°C)    3 mph    56%
7:00 PM    58°F (15°C)    3 mph    60%
8:00 PM    56°F (13°C)    2 mph    62%
9:00 PM    55°F (13°C)    3 mph    63%
10:00 PM    54°F (12°C)    3 mph    64%
11:00 PM    54°F (12°C)    3 mph    65%
 

The Simi Valley, California weather pages are a service of WeatherCurrents.
Copyright ©Tue Dec 12 13:50:56 PST 2017  WeatherCurrents. All rights reserved. - Submit questions and comments - Privacy Policy